sensor_id;sensor_type;location;lat;lon;timestamp;P1;durP1;ratioP1;P2;durP2;ratioP2
8177;SDS011;4130;48.740;9.132;2023-04-19T00:01:04;2.87;;;2.50;;
8177;SDS011;4130;48.740;9.132;2023-04-19T00:03:32;2.50;;;2.30;;
8177;SDS011;4130;48.740;9.132;2023-04-19T00:05:59;3.37;;;2.90;;
8177;SDS011;4130;48.740;9.132;2023-04-19T00:08:26;2.00;;;1.80;;
8177;SDS011;4130;48.740;9.132;2023-04-19T00:10:53;3.00;;;2.63;;
8177;SDS011;4130;48.740;9.132;2023-04-19T00:13:19;5.23;;;3.03;;
8177;SDS011;4130;48.740;9.132;2023-04-19T00:15:47;2.70;;;2.47;;
8177;SDS011;4130;48.740;9.132;2023-04-19T00:18:14;5.90;;;2.43;;
8177;SDS011;4130;48.740;9.132;2023-04-19T00:20:42;3.13;;;2.53;;
8177;SDS011;4130;48.740;9.132;2023-04-19T00:23:09;2.90;;;2.57;;
8177;SDS011;4130;48.740;9.132;2023-04-19T00:25:36;3.00;;;2.33;;
8177;SDS011;4130;48.740;9.132;2023-04-19T00:28:03;3.33;;;2.53;;
8177;SDS011;4130;48.740;9.132;2023-04-19T00:30:30;3.03;;;2.53;;
8177;SDS011;4130;48.740;9.132;2023-04-19T00:32:56;2.23;;;2.03;;
8177;SDS011;4130;48.740;9.132;2023-04-19T00:35:23;3.43;;;2.97;;
8177;SDS011;4130;48.740;9.132;2023-04-19T00:37:51;2.73;;;2.47;;
8177;SDS011;4130;48.740;9.132;2023-04-19T00:40:18;4.70;;;2.80;;
8177;SDS011;4130;48.740;9.132;2023-04-19T00:42:45;3.00;;;2.47;;
8177;SDS011;4130;48.740;9.132;2023-04-19T00:45:12;2.83;;;2.63;;
8177;SDS011;4130;48.740;9.132;2023-04-19T00:47:39;2.77;;;2.27;;
8177;SDS011;4130;48.740;9.132;2023-04-19T00:50:07;3.23;;;2.70;;
8177;SDS011;4130;48.740;9.132;2023-04-19T00:52:34;5.60;;;2.90;;
8177;SDS011;4130;48.740;9.132;2023-04-19T00:55:02;2.80;;;2.60;;
8177;SDS011;4130;48.740;9.132;2023-04-19T00:57:31;2.70;;;2.50;;
8177;SDS011;4130;48.740;9.132;2023-04-19T00:59:57;5.37;;;3.00;;
8177;SDS011;4130;48.740;9.132;2023-04-19T01:02:24;2.83;;;2.50;;
8177;SDS011;4130;48.740;9.132;2023-04-19T01:04:52;3.40;;;2.70;;
8177;SDS011;4130;48.740;9.132;2023-04-19T01:07:19;3.60;;;2.77;;
8177;SDS011;4130;48.740;9.132;2023-04-19T01:09:45;2.87;;;2.63;;
8177;SDS011;4130;48.740;9.132;2023-04-19T01:12:13;3.27;;;2.60;;
8177;SDS011;4130;48.740;9.132;2023-04-19T01:14:40;3.40;;;2.40;;
8177;SDS011;4130;48.740;9.132;2023-04-19T01:17:08;3.97;;;3.10;;
8177;SDS011;4130;48.740;9.132;2023-04-19T01:19:34;4.37;;;2.90;;
8177;SDS011;4130;48.740;9.132;2023-04-19T01:22:02;3.50;;;3.00;;
8177;SDS011;4130;48.740;9.132;2023-04-19T01:24:31;4.43;;;2.87;;
8177;SDS011;4130;48.740;9.132;2023-04-19T01:26:58;2.90;;;2.60;;
8177;SDS011;4130;48.740;9.132;2023-04-19T01:29:26;3.43;;;2.97;;
8177;SDS011;4130;48.740;9.132;2023-04-19T01:31:53;6.83;;;2.67;;
8177;SDS011;4130;48.740;9.132;2023-04-19T01:34:19;3.10;;;2.70;;
8177;SDS011;4130;48.740;9.132;2023-04-19T01:36:47;3.77;;;2.53;;
8177;SDS011;4130;48.740;9.132;2023-04-19T01:39:13;2.77;;;2.53;;
8177;SDS011;4130;48.740;9.132;2023-04-19T01:41:42;3.93;;;2.60;;
8177;SDS011;4130;48.740;9.132;2023-04-19T01:44:08;2.80;;;2.40;;
8177;SDS011;4130;48.740;9.132;2023-04-19T01:46:35;2.73;;;2.20;;
8177;SDS011;4130;48.740;9.132;2023-04-19T01:49:02;3.47;;;2.73;;
8177;SDS011;4130;48.740;9.132;2023-04-19T01:51:29;3.33;;;2.80;;
8177;SDS011;4130;48.740;9.132;2023-04-19T01:53:56;4.27;;;3.13;;
8177;SDS011;4130;48.740;9.132;2023-04-19T01:56:22;2.80;;;2.40;;
8177;SDS011;4130;48.740;9.132;2023-04-19T01:58:51;5.20;;;3.50;;
8177;SDS011;4130;48.740;9.132;2023-04-19T02:01:18;4.10;;;3.20;;
8177;SDS011;4130;48.740;9.132;2023-04-19T02:03:45;2.97;;;2.43;;
8177;SDS011;4130;48.740;9.132;2023-04-19T02:06:11;3.57;;;2.83;;
8177;SDS011;4130;48.740;9.132;2023-04-19T02:08:38;6.63;;;3.10;;
8177;SDS011;4130;48.740;9.132;2023-04-19T02:11:05;3.17;;;2.77;;
8177;SDS011;4130;48.740;9.132;2023-04-19T02:13:33;2.87;;;2.57;;
8177;SDS011;4130;48.740;9.132;2023-04-19T02:16:01;3.30;;;2.60;;
8177;SDS011;4130;48.740;9.132;2023-04-19T02:18:29;3.27;;;2.97;;
8177;SDS011;4130;48.740;9.132;2023-04-19T02:20:57;3.07;;;2.77;;
8177;SDS011;4130;48.740;9.132;2023-04-19T02:23:24;3.33;;;2.57;;
8177;SDS011;4130;48.740;9.132;2023-04-19T02:25:51;4.00;;;2.73;;
8177;SDS011;4130;48.740;9.132;2023-04-19T02:28:18;3.43;;;2.90;;
8177;SDS011;4130;48.740;9.132;2023-04-19T02:30:44;4.03;;;3.17;;
8177;SDS011;4130;48.740;9.132;2023-04-19T02:33:13;2.97;;;2.37;;
8177;SDS011;4130;48.740;9.132;2023-04-19T02:35:40;4.53;;;2.97;;
8177;SDS011;4130;48.740;9.132;2023-04-19T02:38:07;3.67;;;2.97;;
8177;SDS011;4130;48.740;9.132;2023-04-19T02:40:33;3.67;;;2.90;;
8177;SDS011;4130;48.740;9.132;2023-04-19T02:43:00;3.57;;;2.93;;
8177;SDS011;4130;48.740;9.132;2023-04-19T02:45:28;4.63;;;3.07;;
8177;SDS011;4130;48.740;9.132;2023-04-19T02:47:55;3.73;;;3.10;;
8177;SDS011;4130;48.740;9.132;2023-04-19T02:50:25;3.43;;;3.13;;
8177;SDS011;4130;48.740;9.132;2023-04-19T02:52:52;4.93;;;3.13;;
8177;SDS011;4130;48.740;9.132;2023-04-19T02:55:19;3.53;;;2.87;;
8177;SDS011;4130;48.740;9.132;2023-04-19T02:57:46;3.50;;;3.20;;
8177;SDS011;4130;48.740;9.132;2023-04-19T03:00:13;4.57;;;3.30;;
8177;SDS011;4130;48.740;9.132;2023-04-19T03:02:40;3.53;;;2.83;;
8177;SDS011;4130;48.740;9.132;2023-04-19T03:05:08;5.10;;;2.93;;
8177;SDS011;4130;48.740;9.132;2023-04-19T03:07:36;4.10;;;3.00;;
8177;SDS011;4130;48.740;9.132;2023-04-19T03:10:03;3.37;;;2.83;;
8177;SDS011;4130;48.740;9.132;2023-04-19T03:12:31;4.07;;;2.80;;
8177;SDS011;4130;48.740;9.132;2023-04-19T03:14:58;3.37;;;3.00;;
8177;SDS011;4130;48.740;9.132;2023-04-19T03:17:24;4.17;;;3.00;;
8177;SDS011;4130;48.740;9.132;2023-04-19T03:19:51;2.70;;;2.50;;
8177;SDS011;4130;48.740;9.132;2023-04-19T03:22:18;5.77;;;2.90;;
8177;SDS011;4130;48.740;9.132;2023-04-19T03:24:46;6.50;;;3.27;;
8177;SDS011;4130;48.740;9.132;2023-04-19T03:27:13;4.87;;;3.33;;
8177;SDS011;4130;48.740;9.132;2023-04-19T03:29:39;4.37;;;2.87;;
8177;SDS011;4130;48.740;9.132;2023-04-19T03:32:06;4.17;;;3.17;;
8177;SDS011;4130;48.740;9.132;2023-04-19T03:34:34;5.40;;;3.37;;
8177;SDS011;4130;48.740;9.132;2023-04-19T03:37:00;4.13;;;3.53;;
8177;SDS011;4130;48.740;9.132;2023-04-19T03:39:27;3.53;;;3.10;;
8177;SDS011;4130;48.740;9.132;2023-04-19T03:41:55;4.20;;;3.30;;
8177;SDS011;4130;48.740;9.132;2023-04-19T03:44:22;4.53;;;3.40;;
8177;SDS011;4130;48.740;9.132;2023-04-19T03:46:49;4.70;;;3.40;;
8177;SDS011;4130;48.740;9.132;2023-04-19T03:49:15;6.03;;;3.43;;
8177;SDS011;4130;48.740;9.132;2023-04-19T03:51:42;4.70;;;3.30;;
8177;SDS011;4130;48.740;9.132;2023-04-19T03:54:09;5.00;;;3.33;;
8177;SDS011;4130;48.740;9.132;2023-04-19T03:56:36;4.67;;;3.17;;
8177;SDS011;4130;48.740;9.132;2023-04-19T03:59:04;5.60;;;3.23;;
8177;SDS011;4130;48.740;9.132;2023-04-19T04:01:31;3.80;;;3.30;;
8177;SDS011;4130;48.740;9.132;2023-04-19T04:03:58;4.10;;;3.67;;
8177;SDS011;4130;48.740;9.132;2023-04-19T04:06:25;3.83;;;3.20;;
8177;SDS011;4130;48.740;9.132;2023-04-19T04:08:52;5.33;;;3.30;;
8177;SDS011;4130;48.740;9.132;2023-04-19T04:11:18;3.23;;;2.93;;
8177;SDS011;4130;48.740;9.132;2023-04-19T04:13:45;4.33;;;3.47;;
8177;SDS011;4130;48.740;9.132;2023-04-19T04:16:14;4.27;;;3.47;;
8177;SDS011;4130;48.740;9.132;2023-04-19T04:18:41;3.67;;;3.13;;
8177;SDS011;4130;48.740;9.132;2023-04-19T04:21:08;3.90;;;3.23;;
8177;SDS011;4130;48.740;9.132;2023-04-19T04:23:35;4.47;;;3.20;;
8177;SDS011;4130;48.740;9.132;2023-04-19T04:26:02;4.70;;;3.40;;
8177;SDS011;4130;48.740;9.132;2023-04-19T04:28:30;4.53;;;3.20;;
8177;SDS011;4130;48.740;9.132;2023-04-19T04:30:57;3.63;;;2.90;;
8177;SDS011;4130;48.740;9.132;2023-04-19T04:33:25;3.80;;;3.27;;
8177;SDS011;4130;48.740;9.132;2023-04-19T04:35:53;4.27;;;3.63;;
8177;SDS011;4130;48.740;9.132;2023-04-19T04:38:21;3.27;;;2.80;;
8177;SDS011;4130;48.740;9.132;2023-04-19T04:40:48;5.30;;;3.50;;
8177;SDS011;4130;48.740;9.132;2023-04-19T04:43:17;3.67;;;3.00;;
8177;SDS011;4130;48.740;9.132;2023-04-19T04:45:45;3.70;;;3.23;;
8177;SDS011;4130;48.740;9.132;2023-04-19T04:48:11;4.70;;;3.30;;
8177;SDS011;4130;48.740;9.132;2023-04-19T04:50:39;4.60;;;3.47;;
8177;SDS011;4130;48.740;9.132;2023-04-19T04:53:06;6.63;;;3.93;;
8177;SDS011;4130;48.740;9.132;2023-04-19T04:55:33;5.07;;;3.53;;
8177;SDS011;4130;48.740;9.132;2023-04-19T04:58:00;4.77;;;3.57;;
8177;SDS011;4130;48.740;9.132;2023-04-19T05:00:29;3.83;;;3.03;;
8177;SDS011;4130;48.740;9.132;2023-04-19T05:02:56;5.07;;;3.60;;
8177;SDS011;4130;48.740;9.132;2023-04-19T05:05:23;3.93;;;3.30;;
8177;SDS011;4130;48.740;9.132;2023-04-19T05:07:51;4.03;;;3.03;;
8177;SDS011;4130;48.740;9.132;2023-04-19T05:10:18;4.97;;;3.60;;
8177;SDS011;4130;48.740;9.132;2023-04-19T05:12:45;4.73;;;3.50;;
8177;SDS011;4130;48.740;9.132;2023-04-19T05:15:11;5.83;;;3.77;;
8177;SDS011;4130;48.740;9.132;2023-04-19T05:17:38;5.13;;;3.80;;
8177;SDS011;4130;48.740;9.132;2023-04-19T05:20:07;3.93;;;3.20;;
8177;SDS011;4130;48.740;9.132;2023-04-19T05:22:34;5.83;;;3.50;;
8177;SDS011;4130;48.740;9.132;2023-04-19T05:25:03;3.53;;;3.23;;
8177;SDS011;4130;48.740;9.132;2023-04-19T05:27:30;5.50;;;3.93;;
8177;SDS011;4130;48.740;9.132;2023-04-19T05:29:57;4.17;;;3.17;;
8177;SDS011;4130;48.740;9.132;2023-04-19T05:32:24;4.40;;;3.83;;
8177;SDS011;4130;48.740;9.132;2023-04-19T05:34:51;5.00;;;3.50;;
8177;SDS011;4130;48.740;9.132;2023-04-19T05:37:18;4.40;;;3.07;;
8177;SDS011;4130;48.740;9.132;2023-04-19T05:39:45;4.40;;;3.57;;
8177;SDS011;4130;48.740;9.132;2023-04-19T05:42:13;6.40;;;3.77;;
8177;SDS011;4130;48.740;9.132;2023-04-19T05:44:40;4.83;;;3.70;;
8177;SDS011;4130;48.740;9.132;2023-04-19T05:47:06;4.53;;;3.10;;
8177;SDS011;4130;48.740;9.132;2023-04-19T05:49:33;4.63;;;3.30;;
8177;SDS011;4130;48.740;9.132;2023-04-19T05:52:00;4.73;;;3.47;;
8177;SDS011;4130;48.740;9.132;2023-04-19T05:54:27;4.23;;;3.13;;
8177;SDS011;4130;48.740;9.132;2023-04-19T05:56:58;4.80;;;3.33;;
8177;SDS011;4130;48.740;9.132;2023-04-19T05:59:26;3.93;;;3.27;;
8177;SDS011;4130;48.740;9.132;2023-04-19T06:01:53;4.43;;;3.80;;
8177;SDS011;4130;48.740;9.132;2023-04-19T06:04:20;6.80;;;4.60;;
8177;SDS011;4130;48.740;9.132;2023-04-19T06:06:47;4.37;;;3.40;;
8177;SDS011;4130;48.740;9.132;2023-04-19T06:09:13;5.90;;;3.80;;
8177;SDS011;4130;48.740;9.132;2023-04-19T06:11:42;4.13;;;2.93;;
8177;SDS011;4130;48.740;9.132;2023-04-19T06:14:09;5.03;;;3.50;;
8177;SDS011;4130;48.740;9.132;2023-04-19T06:16:37;4.90;;;3.50;;
8177;SDS011;4130;48.740;9.132;2023-04-19T06:19:04;5.37;;;4.10;;
8177;SDS011;4130;48.740;9.132;2023-04-19T06:21:31;5.07;;;3.90;;
8177;SDS011;4130;48.740;9.132;2023-04-19T06:23:58;6.00;;;3.50;;
8177;SDS011;4130;48.740;9.132;2023-04-19T06:26:25;6.23;;;3.93;;
8177;SDS011;4130;48.740;9.132;2023-04-19T06:28:52;4.03;;;3.30;;
8177;SDS011;4130;48.740;9.132;2023-04-19T06:31:19;4.10;;;3.57;;
8177;SDS011;4130;48.740;9.132;2023-04-19T06:33:47;4.00;;;3.57;;
8177;SDS011;4130;48.740;9.132;2023-04-19T06:36:13;6.20;;;3.87;;
8177;SDS011;4130;48.740;9.132;2023-04-19T06:38:40;5.77;;;3.80;;
8177;SDS011;4130;48.740;9.132;2023-04-19T06:41:08;3.97;;;3.50;;
8177;SDS011;4130;48.740;9.132;2023-04-19T06:43:35;5.67;;;3.83;;
8177;SDS011;4130;48.740;9.132;2023-04-19T06:46:04;5.93;;;4.00;;
8177;SDS011;4130;48.740;9.132;2023-04-19T06:48:32;4.37;;;3.60;;
8177;SDS011;4130;48.740;9.132;2023-04-19T06:51:01;4.83;;;3.63;;
8177;SDS011;4130;48.740;9.132;2023-04-19T06:53:27;5.80;;;4.00;;
8177;SDS011;4130;48.740;9.132;2023-04-19T06:55:56;3.77;;;3.17;;
8177;SDS011;4130;48.740;9.132;2023-04-19T06:58:24;3.80;;;3.20;;
8177;SDS011;4130;48.740;9.132;2023-04-19T07:00:51;6.93;;;4.27;;
8177;SDS011;4130;48.740;9.132;2023-04-19T07:03:18;4.57;;;3.60;;
8177;SDS011;4130;48.740;9.132;2023-04-19T07:05:45;8.43;;;4.00;;
8177;SDS011;4130;48.740;9.132;2023-04-19T07:08:13;5.40;;;3.50;;
8177;SDS011;4130;48.740;9.132;2023-04-19T07:10:40;4.47;;;3.80;;
8177;SDS011;4130;48.740;9.132;2023-04-19T07:13:07;5.27;;;3.73;;
8177;SDS011;4130;48.740;9.132;2023-04-19T07:15:35;5.63;;;3.90;;
8177;SDS011;4130;48.740;9.132;2023-04-19T07:18:02;5.93;;;3.77;;
8177;SDS011;4130;48.740;9.132;2023-04-19T07:20:29;6.33;;;3.57;;
8177;SDS011;4130;48.740;9.132;2023-04-19T07:22:56;5.17;;;3.27;;
8177;SDS011;4130;48.740;9.132;2023-04-19T07:25:24;4.03;;;3.63;;
8177;SDS011;4130;48.740;9.132;2023-04-19T07:27:51;3.90;;;2.90;;
8177;SDS011;4130;48.740;9.132;2023-04-19T07:30:18;5.00;;;3.63;;
8177;SDS011;4130;48.740;9.132;2023-04-19T07:32:45;4.33;;;3.30;;
8177;SDS011;4130;48.740;9.132;2023-04-19T07:35:12;3.60;;;3.23;;
8177;SDS011;4130;48.740;9.132;2023-04-19T07:37:39;3.90;;;3.40;;
8177;SDS011;4130;48.740;9.132;2023-04-19T07:40:06;4.37;;;3.47;;
8177;SDS011;4130;48.740;9.132;2023-04-19T07:42:35;3.80;;;3.43;;
8177;SDS011;4130;48.740;9.132;2023-04-19T07:45:01;5.40;;;4.00;;
8177;SDS011;4130;48.740;9.132;2023-04-19T07:47:29;4.73;;;3.43;;
8177;SDS011;4130;48.740;9.132;2023-04-19T07:49:56;4.60;;;3.63;;
8177;SDS011;4130;48.740;9.132;2023-04-19T07:52:23;4.07;;;3.30;;
8177;SDS011;4130;48.740;9.132;2023-04-19T07:54:50;3.27;;;2.97;;
8177;SDS011;4130;48.740;9.132;2023-04-19T07:57:16;4.80;;;3.33;;
8177;SDS011;4130;48.740;9.132;2023-04-19T07:59:44;3.90;;;3.30;;
8177;SDS011;4130;48.740;9.132;2023-04-19T08:02:11;4.83;;;3.53;;
8177;SDS011;4130;48.740;9.132;2023-04-19T08:04:39;4.60;;;3.10;;
8177;SDS011;4130;48.740;9.132;2023-04-19T08:07:06;4.13;;;3.30;;
8177;SDS011;4130;48.740;9.132;2023-04-19T08:09:33;6.87;;;3.83;;
8177;SDS011;4130;48.740;9.132;2023-04-19T08:12:01;4.50;;;3.60;;
8177;SDS011;4130;48.740;9.132;2023-04-19T08:14:28;3.87;;;3.13;;
8177;SDS011;4130;48.740;9.132;2023-04-19T08:16:56;4.43;;;3.17;;
8177;SDS011;4130;48.740;9.132;2023-04-19T08:19:23;6.77;;;3.93;;
8177;SDS011;4130;48.740;9.132;2023-04-19T08:21:50;3.50;;;3.13;;
8177;SDS011;4130;48.740;9.132;2023-04-19T08:24:16;3.50;;;3.10;;
8177;SDS011;4130;48.740;9.132;2023-04-19T08:26:43;6.73;;;3.53;;
8177;SDS011;4130;48.740;9.132;2023-04-19T08:29:17;13.37;;;3.90;;
8177;SDS011;4130;48.740;9.132;2023-04-19T08:31:44;3.63;;;2.50;;
8177;SDS011;4130;48.740;9.132;2023-04-19T08:34:12;13.80;;;3.43;;
8177;SDS011;4130;48.740;9.132;2023-04-19T08:36:39;5.03;;;3.47;;
8177;SDS011;4130;48.740;9.132;2023-04-19T08:39:06;4.38;;;3.40;;
8177;SDS011;4130;48.740;9.132;2023-04-19T08:41:33;7.20;;;3.70;;
8177;SDS011;4130;48.740;9.132;2023-04-19T08:44:00;5.22;;;2.75;;
8177;SDS011;4130;48.740;9.132;2023-04-19T08:46:29;3.70;;;3.08;;
8177;SDS011;4130;48.740;9.132;2023-04-19T08:48:57;4.15;;;2.67;;
8177;SDS011;4130;48.740;9.132;2023-04-19T08:51:26;3.08;;;2.55;;
8177;SDS011;4130;48.740;9.132;2023-04-19T08:53:55;3.40;;;2.67;;
8177;SDS011;4130;48.740;9.132;2023-04-19T08:56:23;2.85;;;2.20;;
8177;SDS011;4130;48.740;9.132;2023-04-19T08:58:51;3.60;;;2.22;;
8177;SDS011;4130;48.740;9.132;2023-04-19T09:01:18;2.30;;;2.10;;
8177;SDS011;4130;48.740;9.132;2023-04-19T09:03:46;4.03;;;2.70;;
8177;SDS011;4130;48.740;9.132;2023-04-19T09:06:13;3.10;;;2.60;;
8177;SDS011;4130;48.740;9.132;2023-04-19T09:08:41;3.10;;;2.60;;
8177;SDS011;4130;48.740;9.132;2023-04-19T09:11:08;2.45;;;2.25;;
8177;SDS011;4130;48.740;9.132;2023-04-19T09:13:35;4.45;;;2.55;;
8177;SDS011;4130;48.740;9.132;2023-04-19T09:16:03;2.97;;;2.72;;
8177;SDS011;4130;48.740;9.132;2023-04-19T09:18:32;5.38;;;2.80;;
8177;SDS011;4130;48.740;9.132;2023-04-19T09:20:58;3.88;;;2.97;;
8177;SDS011;4130;48.740;9.132;2023-04-19T09:23:26;4.13;;;2.55;;
8177;SDS011;4130;48.740;9.132;2023-04-19T09:25:55;3.05;;;2.75;;
8177;SDS011;4130;48.740;9.132;2023-04-19T09:28:24;4.05;;;3.17;;
8177;SDS011;4130;48.740;9.132;2023-04-19T09:30:51;2.80;;;2.55;;
8177;SDS011;4130;48.740;9.132;2023-04-19T09:33:32;3.15;;;2.70;;
8177;SDS011;4130;48.740;9.132;2023-04-19T09:36:00;3.20;;;2.60;;
8177;SDS011;4130;48.740;9.132;2023-04-19T09:38:27;3.30;;;2.22;;
8177;SDS011;4130;48.740;9.132;2023-04-19T09:41:05;2.72;;;2.45;;
8177;SDS011;4130;48.740;9.132;2023-04-19T09:43:34;3.22;;;2.47;;
8177;SDS011;4130;48.740;9.132;2023-04-19T09:46:01;4.57;;;3.60;;
8177;SDS011;4130;48.740;9.132;2023-04-19T09:48:28;4.07;;;3.20;;
8177;SDS011;4130;48.740;9.132;2023-04-19T09:50:55;3.38;;;2.53;;
8177;SDS011;4130;48.740;9.132;2023-04-19T09:53:23;3.13;;;2.75;;
8177;SDS011;4130;48.740;9.132;2023-04-19T09:55:51;2.70;;;2.30;;
8177;SDS011;4130;48.740;9.132;2023-04-19T09:58:19;3.55;;;3.10;;
8177;SDS011;4130;48.740;9.132;2023-04-19T10:00:47;3.78;;;2.75;;
8177;SDS011;4130;48.740;9.132;2023-04-19T10:03:16;4.38;;;2.92;;
8177;SDS011;4130;48.740;9.132;2023-04-19T10:05:43;3.45;;;3.08;;
8177;SDS011;4130;48.740;9.132;2023-04-19T10:08:12;3.85;;;3.08;;
8177;SDS011;4130;48.740;9.132;2023-04-19T10:10:39;3.83;;;2.63;;
8177;SDS011;4130;48.740;9.132;2023-04-19T10:13:07;3.65;;;2.53;;
8177;SDS011;4130;48.740;9.132;2023-04-19T10:15:37;3.35;;;2.95;;
8177;SDS011;4130;48.740;9.132;2023-04-19T10:18:06;3.20;;;2.80;;
8177;SDS011;4130;48.740;9.132;2023-04-19T10:20:36;4.38;;;2.75;;
8177;SDS011;4130;48.740;9.132;2023-04-19T10:23:08;3.05;;;2.70;;
8177;SDS011;4130;48.740;9.132;2023-04-19T10:25:35;2.72;;;2.25;;
8177;SDS011;4130;48.740;9.132;2023-04-19T10:28:03;3.10;;;2.85;;
8177;SDS011;4130;48.740;9.132;2023-04-19T10:30:30;3.15;;;2.85;;
8177;SDS011;4130;48.740;9.132;2023-04-19T10:32:58;2.92;;;2.33;;
8177;SDS011;4130;48.740;9.132;2023-04-19T10:35:32;2.80;;;2.35;;
8177;SDS011;4130;48.740;9.132;2023-04-19T10:38:00;4.28;;;3.10;;
8177;SDS011;4130;48.740;9.132;2023-04-19T10:43:22;2.60;;;2.40;;
8177;SDS011;4130;48.740;9.132;2023-04-19T10:45:49;4.28;;;2.42;;
8177;SDS011;4130;48.740;9.132;2023-04-19T10:51:18;3.92;;;2.75;;
8177;SDS011;4130;48.740;9.132;2023-04-19T10:53:47;2.95;;;2.40;;
8177;SDS011;4130;48.740;9.132;2023-04-19T10:56:19;3.30;;;3.00;;
8177;SDS011;4130;48.740;9.132;2023-04-19T11:01:49;3.03;;;2.67;;
8177;SDS011;4130;48.740;9.132;2023-04-19T11:04:20;2.78;;;2.58;;
8177;SDS011;4130;48.740;9.132;2023-04-19T11:06:58;3.40;;;2.60;;
8177;SDS011;4130;48.740;9.132;2023-04-19T11:09:27;2.97;;;2.22;;
8177;SDS011;4130;48.740;9.132;2023-04-19T11:11:56;2.35;;;2.15;;
8177;SDS011;4130;48.740;9.132;2023-04-19T11:14:24;2.92;;;2.45;;
8177;SDS011;4130;48.740;9.132;2023-04-19T11:16:52;2.85;;;2.53;;
8177;SDS011;4130;48.740;9.132;2023-04-19T11:19:20;4.07;;;2.97;;
8177;SDS011;4130;48.740;9.132;2023-04-19T11:21:47;3.92;;;2.63;;
8177;SDS011;4130;48.740;9.132;2023-04-19T11:24:14;3.03;;;2.58;;
8177;SDS011;4130;48.740;9.132;2023-04-19T11:26:42;3.40;;;2.58;;
8177;SDS011;4130;48.740;9.132;2023-04-19T11:29:10;5.05;;;3.00;;
8177;SDS011;4130;48.740;9.132;2023-04-19T11:31:37;3.17;;;2.47;;
8177;SDS011;4130;48.740;9.132;2023-04-19T11:34:04;3.70;;;3.03;;
8177;SDS011;4130;48.740;9.132;2023-04-19T11:36:32;2.97;;;2.65;;
8177;SDS011;4130;48.740;9.132;2023-04-19T11:39:01;3.10;;;2.72;;
8177;SDS011;4130;48.740;9.132;2023-04-19T11:41:29;3.33;;;2.93;;
8177;SDS011;4130;48.740;9.132;2023-04-19T11:44:03;3.33;;;2.57;;
8177;SDS011;4130;48.740;9.132;2023-04-19T11:46:29;3.57;;;3.27;;
8177;SDS011;4130;48.740;9.132;2023-04-19T11:48:56;4.23;;;3.13;;
8177;SDS011;4130;48.740;9.132;2023-04-19T11:51:23;4.20;;;3.10;;
8177;SDS011;4130;48.740;9.132;2023-04-19T11:53:53;4.07;;;2.40;;
8177;SDS011;4130;48.740;9.132;2023-04-19T11:56:20;3.93;;;2.83;;
8177;SDS011;4130;48.740;9.132;2023-04-19T11:58:47;4.37;;;3.17;;
8177;SDS011;4130;48.740;9.132;2023-04-19T12:01:15;4.60;;;2.87;;
8177;SDS011;4130;48.740;9.132;2023-04-19T12:03:44;3.17;;;2.87;;
8177;SDS011;4130;48.740;9.132;2023-04-19T12:06:12;3.67;;;3.00;;
8177;SDS011;4130;48.740;9.132;2023-04-19T12:08:41;8.43;;;2.70;;
8177;SDS011;4130;48.740;9.132;2023-04-19T12:11:10;4.30;;;3.30;;
8177;SDS011;4130;48.740;9.132;2023-04-19T12:13:37;4.00;;;2.83;;
8177;SDS011;4130;48.740;9.132;2023-04-19T12:16:05;3.80;;;3.40;;
8177;SDS011;4130;48.740;9.132;2023-04-19T12:18:42;4.43;;;3.33;;
8177;SDS011;4130;48.740;9.132;2023-04-19T12:21:10;4.97;;;3.50;;
8177;SDS011;4130;48.740;9.132;2023-04-19T12:23:48;4.87;;;3.47;;
8177;SDS011;4130;48.740;9.132;2023-04-19T12:26:16;4.80;;;3.63;;
8177;SDS011;4130;48.740;9.132;2023-04-19T12:28:43;4.83;;;2.97;;
8177;SDS011;4130;48.740;9.132;2023-04-19T12:31:10;4.33;;;3.30;;
8177;SDS011;4130;48.740;9.132;2023-04-19T12:33:37;3.43;;;2.97;;
8177;SDS011;4130;48.740;9.132;2023-04-19T12:36:04;4.30;;;3.50;;
8177;SDS011;4130;48.740;9.132;2023-04-19T12:38:31;4.03;;;3.63;;
8177;SDS011;4130;48.740;9.132;2023-04-19T12:40:57;5.97;;;3.40;;
8177;SDS011;4130;48.740;9.132;2023-04-19T12:43:26;4.27;;;3.10;;
8177;SDS011;4130;48.740;9.132;2023-04-19T12:45:54;4.20;;;3.40;;
8177;SDS011;4130;48.740;9.132;2023-04-19T12:48:20;3.50;;;3.20;;
8177;SDS011;4130;48.740;9.132;2023-04-19T12:50:47;3.40;;;3.07;;
8177;SDS011;4130;48.740;9.132;2023-04-19T12:53:14;4.27;;;3.67;;
8177;SDS011;4130;48.740;9.132;2023-04-19T12:55:41;3.43;;;3.13;;
8177;SDS011;4130;48.740;9.132;2023-04-19T12:58:11;4.73;;;3.10;;
8177;SDS011;4130;48.740;9.132;2023-04-19T13:00:39;6.17;;;3.37;;
8177;SDS011;4130;48.740;9.132;2023-04-19T13:03:06;3.83;;;3.43;;
8177;SDS011;4130;48.740;9.132;2023-04-19T13:05:33;3.20;;;2.90;;
8177;SDS011;4130;48.740;9.132;2023-04-19T13:07:59;3.93;;;3.43;;
8177;SDS011;4130;48.740;9.132;2023-04-19T13:10:26;5.00;;;3.47;;
8177;SDS011;4130;48.740;9.132;2023-04-19T13:12:53;4.87;;;3.13;;
8177;SDS011;4130;48.740;9.132;2023-04-19T13:15:20;3.97;;;3.23;;
8177;SDS011;4130;48.740;9.132;2023-04-19T13:17:48;4.00;;;3.30;;
8177;SDS011;4130;48.740;9.132;2023-04-19T13:20:15;3.33;;;3.03;;
8177;SDS011;4130;48.740;9.132;2023-04-19T13:22:43;6.10;;;3.53;;
8177;SDS011;4130;48.740;9.132;2023-04-19T13:25:10;4.73;;;3.50;;
8177;SDS011;4130;48.740;9.132;2023-04-19T13:27:37;3.40;;;2.97;;
8177;SDS011;4130;48.740;9.132;2023-04-19T13:30:04;5.30;;;3.40;;
8177;SDS011;4130;48.740;9.132;2023-04-19T13:32:32;3.37;;;3.07;;
8177;SDS011;4130;48.740;9.132;2023-04-19T13:35:00;4.53;;;3.10;;
8177;SDS011;4130;48.740;9.132;2023-04-19T13:37:27;3.97;;;3.20;;
8177;SDS011;4130;48.740;9.132;2023-04-19T13:39:54;4.70;;;2.90;;
8177;SDS011;4130;48.740;9.132;2023-04-19T13:42:21;3.37;;;2.80;;
8177;SDS011;4130;48.740;9.132;2023-04-19T13:44:47;3.37;;;3.07;;
8177;SDS011;4130;48.740;9.132;2023-04-19T13:47:14;4.67;;;2.97;;
8177;SDS011;4130;48.740;9.132;2023-04-19T13:49:41;3.40;;;2.63;;
8177;SDS011;4130;48.740;9.132;2023-04-19T13:52:09;4.93;;;3.10;;
8177;SDS011;4130;48.740;9.132;2023-04-19T13:54:37;4.50;;;3.17;;
8177;SDS011;4130;48.740;9.132;2023-04-19T13:57:03;4.67;;;3.13;;
8177;SDS011;4130;48.740;9.132;2023-04-19T13:59:30;3.87;;;3.00;;
8177;SDS011;4130;48.740;9.132;2023-04-19T14:01:57;5.33;;;3.07;;
8177;SDS011;4130;48.740;9.132;2023-04-19T14:04:23;4.77;;;3.23;;
8177;SDS011;4130;48.740;9.132;2023-04-19T14:06:50;3.70;;;3.13;;
8177;SDS011;4130;48.740;9.132;2023-04-19T14:09:18;3.87;;;3.27;;
8177;SDS011;4130;48.740;9.132;2023-04-19T14:11:45;3.70;;;3.10;;
8177;SDS011;4130;48.740;9.132;2023-04-19T14:14:13;5.80;;;2.93;;
8177;SDS011;4130;48.740;9.132;2023-04-19T14:16:40;3.53;;;3.23;;
8177;SDS011;4130;48.740;9.132;2023-04-19T14:19:06;5.40;;;3.57;;
8177;SDS011;4130;48.740;9.132;2023-04-19T14:21:33;4.37;;;3.30;;
8177;SDS011;4130;48.740;9.132;2023-04-19T14:24:00;6.30;;;3.20;;
8177;SDS011;4130;48.740;9.132;2023-04-19T14:26:28;3.63;;;3.20;;
8177;SDS011;4130;48.740;9.132;2023-04-19T14:28:55;7.50;;;3.60;;
8177;SDS011;4130;48.740;9.132;2023-04-19T14:31:23;5.13;;;3.83;;
8177;SDS011;4130;48.740;9.132;2023-04-19T14:33:51;5.10;;;3.50;;
8177;SDS011;4130;48.740;9.132;2023-04-19T14:36:18;5.33;;;3.53;;
8177;SDS011;4130;48.740;9.132;2023-04-19T14:38:44;4.00;;;3.43;;
8177;SDS011;4130;48.740;9.132;2023-04-19T14:41:11;4.53;;;3.13;;
8177;SDS011;4130;48.740;9.132;2023-04-19T14:43:40;4.37;;;3.70;;
8177;SDS011;4130;48.740;9.132;2023-04-19T14:46:06;4.07;;;2.87;;
8177;SDS011;4130;48.740;9.132;2023-04-19T14:48:33;3.23;;;2.67;;
8177;SDS011;4130;48.740;9.132;2023-04-19T14:51:00;4.47;;;3.60;;
8177;SDS011;4130;48.740;9.132;2023-04-19T14:53:27;3.90;;;3.17;;
8177;SDS011;4130;48.740;9.132;2023-04-19T14:55:55;3.80;;;3.13;;
8177;SDS011;4130;48.740;9.132;2023-04-19T14:58:21;3.93;;;3.00;;
8177;SDS011;4130;48.740;9.132;2023-04-19T15:00:49;4.83;;;3.20;;
8177;SDS011;4130;48.740;9.132;2023-04-19T15:03:18;3.53;;;3.23;;
8177;SDS011;4130;48.740;9.132;2023-04-19T15:05:44;3.50;;;3.03;;
8177;SDS011;4130;48.740;9.132;2023-04-19T15:08:11;3.63;;;3.30;;
8177;SDS011;4130;48.740;9.132;2023-04-19T15:10:38;3.67;;;2.80;;
8177;SDS011;4130;48.740;9.132;2023-04-19T15:13:05;3.20;;;2.83;;
8177;SDS011;4130;48.740;9.132;2023-04-19T15:15:31;3.17;;;2.87;;
8177;SDS011;4130;48.740;9.132;2023-04-19T15:18:00;4.77;;;3.33;;
8177;SDS011;4130;48.740;9.132;2023-04-19T15:20:26;3.90;;;3.30;;
8177;SDS011;4130;48.740;9.132;2023-04-19T15:22:53;3.83;;;3.10;;
8177;SDS011;4130;48.740;9.132;2023-04-19T15:25:20;3.57;;;3.27;;